createdAt,value
2018-01-12T00:00:59.187Z,20.57
2018-01-12T00:03:26.938Z,20.83
2018-01-12T00:05:54.676Z,20.47
2018-01-12T00:08:22.411Z,21.83
2018-01-12T00:10:50.204Z,13.53
2018-01-12T00:13:17.910Z,14.87
2018-01-12T00:15:45.679Z,16.80
2018-01-12T00:18:13.383Z,22.23
2018-01-12T00:20:41.081Z,28.50
2018-01-12T00:23:08.852Z,27.27
2018-01-12T00:25:36.648Z,34.27
2018-01-12T00:28:04.415Z,30.60
2018-01-12T00:30:32.215Z,30.70
2018-01-12T00:32:59.933Z,34.37
2018-01-12T00:35:27.696Z,40.00
2018-01-12T00:37:55.548Z,34.07
2018-01-12T00:40:23.307Z,44.17
2018-01-12T00:42:51.104Z,38.37
2018-01-12T00:45:18.896Z,44.27
2018-01-12T00:47:46.766Z,49.93
2018-01-12T00:50:14.633Z,51.57
2018-01-12T00:52:42.446Z,50.33
2018-01-12T00:55:10.318Z,56.67
2018-01-12T00:57:38.100Z,49.90
2018-01-12T01:00:06.788Z,45.67
2018-01-12T01:02:34.479Z,44.77
2018-01-12T01:05:02.220Z,51.63
2018-01-12T01:07:29.967Z,46.27
2018-01-12T01:09:57.715Z,44.10
2018-01-12T01:12:25.454Z,49.77
2018-01-12T01:14:53.206Z,42.53
2018-01-12T01:17:20.967Z,40.10
2018-01-12T01:19:48.744Z,44.23
2018-01-12T01:22:16.457Z,43.27
2018-01-12T01:24:44.170Z,52.20
2018-01-12T01:27:11.990Z,45.90
2018-01-12T01:29:39.808Z,44.23
2018-01-12T01:32:07.602Z,44.37
2018-01-12T01:34:35.302Z,41.47
2018-01-12T01:37:03.012Z,47.77
2018-01-12T01:39:30.757Z,41.17
2018-01-12T01:41:58.576Z,45.87
2018-01-12T01:44:26.304Z,38.63
2018-01-12T01:46:53.979Z,43.97
2018-01-12T01:49:21.676Z,42.47
2018-01-12T01:51:49.475Z,45.13
2018-01-12T01:54:17.186Z,38.87
2018-01-12T01:56:44.960Z,36.50
2018-01-12T01:59:12.660Z,41.80
2018-01-12T02:01:40.377Z,36.60
2018-01-12T02:04:08.121Z,28.67
2018-01-12T02:06:35.842Z,34.17
2018-01-12T02:09:03.630Z,35.67
2018-01-12T02:11:31.383Z,31.43
2018-01-12T02:13:59.103Z,33.73
2018-01-12T02:16:26.864Z,37.00
2018-01-12T02:18:54.654Z,34.97
2018-01-12T02:21:22.383Z,36.43
2018-01-12T02:23:50.064Z,38.77
2018-01-12T02:26:17.785Z,37.73
2018-01-12T02:28:45.501Z,33.80
2018-01-12T02:31:13.222Z,34.40
2018-01-12T02:33:40.970Z,35.37
2018-01-12T02:36:08.808Z,38.17
2018-01-12T02:38:36.513Z,41.70
2018-01-12T02:41:04.464Z,32.63
2018-01-12T02:43:32.128Z,40.13
2018-01-12T02:45:59.856Z,31.07
2018-01-12T02:48:27.641Z,29.03
2018-01-12T02:50:55.344Z,29.93
2018-01-12T02:53:23.173Z,28.27
2018-01-12T02:55:51.562Z,28.70
2018-01-12T02:58:19.527Z,25.70
2018-01-12T03:00:47.199Z,30.80
2018-01-12T03:03:14.899Z,29.00
2018-01-12T03:05:42.742Z,25.33
2018-01-12T03:08:10.401Z,27.33
2018-01-12T03:10:38.204Z,30.60
2018-01-12T03:13:05.879Z,32.27
2018-01-12T03:15:33.649Z,33.63
2018-01-12T03:18:01.475Z,30.90
2018-01-12T03:20:29.228Z,30.03
2018-01-12T03:22:56.891Z,28.30
2018-01-12T03:25:24.571Z,35.70
2018-01-12T03:27:52.600Z,30.40
2018-01-12T03:30:20.324Z,27.37
2018-01-12T03:32:48.184Z,38.03
2018-01-12T03:35:15.894Z,29.20
2018-01-12T03:37:43.602Z,26.60
2018-01-12T03:40:11.379Z,31.37
2018-01-12T03:42:39.185Z,36.20
2018-01-12T03:45:06.936Z,27.80
2018-01-12T03:47:34.732Z,29.83
2018-01-12T03:50:02.489Z,31.77
2018-01-12T03:52:30.227Z,29.77
2018-01-12T03:54:58.032Z,29.40
2018-01-12T03:57:25.716Z,25.40
2018-01-12T03:59:53.484Z,27.80
2018-01-12T04:02:21.173Z,28.23
2018-01-12T04:04:48.852Z,31.30
2018-01-12T04:07:16.582Z,27.40
2018-01-12T04:09:44.347Z,31.30
2018-01-12T04:12:12.042Z,25.67
2018-01-12T04:14:39.776Z,27.70
2018-01-12T04:17:07.493Z,24.40
2018-01-12T04:19:35.440Z,24.27
2018-01-12T04:22:03.204Z,37.33
2018-01-12T04:24:30.902Z,26.00
2018-01-12T04:26:58.636Z,24.83
2018-01-12T04:29:26.757Z,33.90
2018-01-12T04:31:54.529Z,24.93
2018-01-12T04:34:22.270Z,24.73
2018-01-12T04:36:50.014Z,30.03
2018-01-12T04:39:17.752Z,23.30
2018-01-12T04:41:45.780Z,23.40
2018-01-12T04:44:13.558Z,22.20
2018-01-12T04:46:41.296Z,23.17
2018-01-12T04:49:08.994Z,21.30
2018-01-12T04:51:36.725Z,24.67
2018-01-12T04:54:04.476Z,21.67
2018-01-12T04:56:32.166Z,20.83
2018-01-12T04:58:59.921Z,25.53
2018-01-12T05:01:27.686Z,26.33
2018-01-12T05:03:55.605Z,20.37
2018-01-12T05:06:23.448Z,24.73
2018-01-12T05:08:51.196Z,23.23
2018-01-12T05:11:18.926Z,23.43
2018-01-12T05:13:46.682Z,23.30
2018-01-12T05:16:14.385Z,20.17
2018-01-12T05:18:42.137Z,19.00
2018-01-12T05:21:09.939Z,21.13
2018-01-12T05:23:37.958Z,21.50
2018-01-12T05:26:05.693Z,25.43
2018-01-12T05:28:33.432Z,25.50
2018-01-12T05:31:01.761Z,22.57
2018-01-12T05:33:29.525Z,27.77
2018-01-12T05:35:57.426Z,31.60
2018-01-12T05:38:25.187Z,21.77
2018-01-12T05:40:52.917Z,22.07
2018-01-12T05:43:20.681Z,23.40
2018-01-12T05:45:48.426Z,24.07
2018-01-12T05:48:16.254Z,17.73
2018-01-12T05:50:43.953Z,26.30
2018-01-12T05:53:11.674Z,24.20
2018-01-12T05:55:39.365Z,33.47
2018-01-12T05:58:07.093Z,34.33
2018-01-12T06:00:34.838Z,29.17
2018-01-12T06:03:14.200Z,27.03
2018-01-12T06:05:53.772Z,32.23
2018-01-12T06:08:21.509Z,25.17
2018-01-12T06:10:49.194Z,30.87
2018-01-12T06:13:16.917Z,27.57
2018-01-12T06:15:44.606Z,25.97
2018-01-12T06:18:12.656Z,22.90
2018-01-12T06:20:40.357Z,22.40
2018-01-12T06:23:08.106Z,21.53
2018-01-12T06:25:35.883Z,17.90
2018-01-12T06:28:03.597Z,22.40
2018-01-12T06:30:31.285Z,20.73
2018-01-12T06:32:59.020Z,22.67
2018-01-12T06:35:26.689Z,19.37
2018-01-12T06:37:54.472Z,25.20
2018-01-12T06:40:22.180Z,16.97
2018-01-12T06:42:49.858Z,20.00
2018-01-12T06:45:17.616Z,24.47
2018-01-12T06:47:45.303Z,19.20
2018-01-12T06:50:13.070Z,18.07
2018-01-12T06:52:40.772Z,21.17
2018-01-12T06:55:08.438Z,21.47
2018-01-12T06:57:36.182Z,23.93
2018-01-12T07:00:04.031Z,20.83
2018-01-12T07:02:31.790Z,18.07
2018-01-12T07:04:59.472Z,34.07
2018-01-12T07:07:27.233Z,22.57
2018-01-12T07:09:54.963Z,18.73
2018-01-12T07:12:22.699Z,19.30
2018-01-12T07:14:50.493Z,28.50
2018-01-12T07:17:18.240Z,31.30
2018-01-12T07:19:46.004Z,31.60
2018-01-12T07:22:25.444Z,34.27
2018-01-12T07:24:53.286Z,22.87
2018-01-12T07:27:21.157Z,25.33
2018-01-12T07:29:48.885Z,19.40
2018-01-12T07:32:16.735Z,26.00
2018-01-12T07:34:44.469Z,25.53
2018-01-12T07:37:12.288Z,21.50
2018-01-12T07:39:40.065Z,24.03
2018-01-12T07:42:07.846Z,26.30
2018-01-12T07:44:35.655Z,18.00
2018-01-12T07:47:03.416Z,22.80
2018-01-12T07:49:31.208Z,15.77
2018-01-12T07:51:59.023Z,18.70
2018-01-12T07:54:26.824Z,24.40
2018-01-12T07:56:54.608Z,22.23
2018-01-12T07:59:22.381Z,23.00
2018-01-12T08:01:55.712Z,26.50
2018-01-12T08:04:23.569Z,22.03
2018-01-12T08:06:51.335Z,30.77
2018-01-12T08:09:19.090Z,26.07
2018-01-12T08:11:46.801Z,27.40
2018-01-12T08:14:14.553Z,22.57
2018-01-12T08:16:42.488Z,24.97
2018-01-12T08:19:10.307Z,19.90
2018-01-12T08:21:38.057Z,23.93
2018-01-12T08:24:05.842Z,17.50
2018-01-12T08:26:33.626Z,23.40
2018-01-12T08:29:01.454Z,18.97
2018-01-12T08:31:29.267Z,17.27
2018-01-12T08:33:57.015Z,22.67
2018-01-12T08:36:24.893Z,17.77
2018-01-12T08:38:52.752Z,21.33
2018-01-12T08:41:20.499Z,22.37
2018-01-12T08:43:48.370Z,16.73
2018-01-12T08:46:16.080Z,20.20
2018-01-12T08:48:43.822Z,20.40
2018-01-12T08:51:11.659Z,17.93
2018-01-12T08:53:39.371Z,22.10
2018-01-12T08:56:07.736Z,20.93
2018-01-12T08:58:35.469Z,23.00
2018-01-12T09:01:03.176Z,22.10
2018-01-12T09:03:30.917Z,14.40
2018-01-12T09:05:58.600Z,16.97
2018-01-12T09:08:26.307Z,18.33
2018-01-12T09:10:54.063Z,16.33
2018-01-12T09:13:33.530Z,24.93
2018-01-12T09:16:10.438Z,23.87
2018-01-12T09:18:50.777Z,12.60
2018-01-12T09:21:25.720Z,16.20
2018-01-12T09:23:56.409Z,15.10
2018-01-12T09:26:24.155Z,17.30
2018-01-12T09:28:51.899Z,14.97
2018-01-12T09:31:19.769Z,13.10
2018-01-12T09:33:48.410Z,15.07
2018-01-12T09:36:16.138Z,16.50
2018-01-12T09:38:53.586Z,15.57
2018-01-12T09:41:21.349Z,18.17
2018-01-12T09:43:49.107Z,19.47
2018-01-12T09:46:16.876Z,18.10
2018-01-12T09:48:51.591Z,13.90
2018-01-12T09:51:19.397Z,18.00
2018-01-12T09:53:47.238Z,14.17
2018-01-12T09:56:15.035Z,11.30
2018-01-12T09:58:45.753Z,14.60
2018-01-12T10:01:26.083Z,15.07
2018-01-12T10:03:53.836Z,12.70
2018-01-12T10:06:21.531Z,23.87
2018-01-12T10:08:49.335Z,18.47
2018-01-12T10:11:17.077Z,15.60
2018-01-12T10:13:44.797Z,15.73
2018-01-12T10:16:12.674Z,14.50
2018-01-12T10:18:42.374Z,23.10
2018-01-12T10:21:21.774Z,15.27
2018-01-12T10:23:49.505Z,12.80
2018-01-12T10:26:17.191Z,30.50
2018-01-12T10:28:56.709Z,12.47
2018-01-12T10:31:33.189Z,16.80
2018-01-12T10:34:07.692Z,14.90
2018-01-12T10:36:40.128Z,15.33
2018-01-12T10:39:19.570Z,15.07
2018-01-12T10:41:59.046Z,13.03
2018-01-12T10:44:26.841Z,11.93
2018-01-12T10:47:06.366Z,14.83
2018-01-12T10:49:34.177Z,17.73
2018-01-12T10:52:07.730Z,20.93
2018-01-12T10:54:35.472Z,17.97
2018-01-12T10:57:03.174Z,18.87
2018-01-12T10:59:30.915Z,17.30
2018-01-12T11:01:58.590Z,15.17
2018-01-12T11:04:26.352Z,15.00
2018-01-12T11:06:54.038Z,13.40
2018-01-12T11:09:21.818Z,17.03
2018-01-12T11:11:49.573Z,14.37
2018-01-12T11:14:17.301Z,12.63
2018-01-12T11:16:45.012Z,18.27
2018-01-12T11:19:12.760Z,15.27
2018-01-12T11:21:40.551Z,16.13
2018-01-12T11:24:08.334Z,14.23
2018-01-12T11:26:36.018Z,15.83
2018-01-12T11:29:03.768Z,11.50
2018-01-12T11:31:31.598Z,13.90
2018-01-12T11:33:59.308Z,15.23
2018-01-12T11:36:27.136Z,16.50
2018-01-12T11:38:54.908Z,26.50
2018-01-12T11:41:22.595Z,12.10
2018-01-12T11:43:50.356Z,15.50
2018-01-12T11:46:18.082Z,12.67
2018-01-12T11:48:45.762Z,25.67
2018-01-12T11:51:13.558Z,15.67
2018-01-12T11:53:41.281Z,18.30
2018-01-12T11:56:08.979Z,17.33
2018-01-12T11:58:36.837Z,14.33
2018-01-12T12:01:04.642Z,13.27
2018-01-12T12:03:32.456Z,11.47
2018-01-12T12:06:00.226Z,15.53
2018-01-12T12:08:28.118Z,13.87
2018-01-12T12:10:55.932Z,13.57
2018-01-12T12:13:23.654Z,15.37
2018-01-12T12:15:51.486Z,19.87
2018-01-12T12:18:19.174Z,32.70
2018-01-12T12:20:46.964Z,19.50
2018-01-12T12:23:14.784Z,13.20
2018-01-12T12:25:43.211Z,16.17
2018-01-12T12:28:10.949Z,17.20
2018-01-12T12:30:38.684Z,16.10
2018-01-12T12:33:07.363Z,17.43
2018-01-12T12:35:35.051Z,25.93
2018-01-12T12:38:02.848Z,17.60
2018-01-12T12:40:31.220Z,26.03
2018-01-12T12:42:59.012Z,14.67
2018-01-12T12:45:26.911Z,17.67
2018-01-12T12:47:54.686Z,17.20
2018-01-12T12:50:22.555Z,13.30
2018-01-12T12:52:50.296Z,17.63
2018-01-12T12:55:18.067Z,18.63
2018-01-12T12:57:45.856Z,15.43
2018-01-12T13:00:13.628Z,16.90
2018-01-12T13:02:41.392Z,15.30
2018-01-12T13:05:09.190Z,22.50
2018-01-12T13:07:37.062Z,14.60
2018-01-12T13:10:04.972Z,15.40
2018-01-12T13:12:32.753Z,15.57
2018-01-12T13:15:00.683Z,13.57
2018-01-12T13:17:28.397Z,12.53
2018-01-12T13:19:56.187Z,14.43
2018-01-12T13:22:24.821Z,15.50
2018-01-12T13:24:52.563Z,18.03
2018-01-12T13:27:20.285Z,15.80
2018-01-12T13:29:48.021Z,13.00
2018-01-12T13:32:15.730Z,13.50
2018-01-12T13:34:43.556Z,18.47
2018-01-12T13:37:11.391Z,12.60
2018-01-12T13:39:39.088Z,14.63
2018-01-12T13:42:06.942Z,20.43
2018-01-12T13:44:34.712Z,20.67
2018-01-12T13:47:02.507Z,16.20
2018-01-12T13:49:30.195Z,18.33
2018-01-12T13:51:57.977Z,15.43
2018-01-12T13:54:25.668Z,12.40
2018-01-12T13:56:53.360Z,15.57
2018-01-12T13:59:21.305Z,14.20
2018-01-12T14:01:49.089Z,12.50
2018-01-12T14:04:16.875Z,13.57
2018-01-12T14:06:44.610Z,13.97
2018-01-12T14:09:12.413Z,16.40
2018-01-12T14:11:40.184Z,11.97
2018-01-12T14:14:08.034Z,15.63
2018-01-12T14:16:35.784Z,17.37
2018-01-12T14:19:03.568Z,14.03
2018-01-12T14:21:31.332Z,15.20
2018-01-12T14:23:59.066Z,14.43
2018-01-12T14:26:27.117Z,12.07
2018-01-12T14:28:55.294Z,12.20
2018-01-12T14:31:23.038Z,16.10
2018-01-12T14:33:50.784Z,49.97
2018-01-12T14:36:18.660Z,42.33
2018-01-12T14:38:46.428Z,26.23
2018-01-12T14:41:14.186Z,20.37
2018-01-12T14:43:42.041Z,19.70
2018-01-12T14:46:09.812Z,14.83
2018-01-12T14:48:37.666Z,21.83
2018-01-12T14:51:05.531Z,17.27
2018-01-12T14:53:33.304Z,17.60
2018-01-12T14:56:01.262Z,16.63
2018-01-12T14:58:29.064Z,14.90
2018-01-12T15:00:56.784Z,18.03
2018-01-12T15:03:24.585Z,21.93
2018-01-12T15:05:53.182Z,23.93
2018-01-12T15:08:20.897Z,30.50
2018-01-12T15:10:48.660Z,16.50
2018-01-12T15:13:16.472Z,16.53
2018-01-12T15:15:44.199Z,16.60
2018-01-12T15:18:11.923Z,30.20
2018-01-12T15:20:40.153Z,19.03
2018-01-12T15:23:08.608Z,18.97
2018-01-12T15:25:36.467Z,17.50
2018-01-12T15:28:04.402Z,18.83
2018-01-12T15:30:32.162Z,23.23
2018-01-12T15:33:00.102Z,22.73
2018-01-12T15:35:27.998Z,25.83
2018-01-12T15:37:55.778Z,22.53
2018-01-12T15:40:24.265Z,21.63
2018-01-12T15:42:52.146Z,18.60
2018-01-12T15:45:19.917Z,22.13
2018-01-12T15:47:47.676Z,19.67
2018-01-12T15:50:15.541Z,17.63
2018-01-12T15:52:43.282Z,23.10
2018-01-12T15:55:11.047Z,19.33
2018-01-12T15:57:38.764Z,21.97
2018-01-12T16:00:06.615Z,14.97
2018-01-12T16:02:34.379Z,24.80
2018-01-12T16:05:02.137Z,20.57
2018-01-12T16:07:29.940Z,31.97
2018-01-12T16:09:57.833Z,18.37
2018-01-12T16:12:25.740Z,19.50
2018-01-12T16:14:54.411Z,21.20
2018-01-12T16:17:22.212Z,19.83
2018-01-12T16:19:49.959Z,26.73
2018-01-12T16:22:17.707Z,21.87
2018-01-12T16:24:45.622Z,23.40
2018-01-12T16:27:13.737Z,21.90
2018-01-12T16:29:41.630Z,24.30
2018-01-12T16:32:09.590Z,24.33
2018-01-12T16:34:37.325Z,38.70
2018-01-12T16:37:05.145Z,52.93
2018-01-12T16:39:32.939Z,37.30
2018-01-12T16:42:00.684Z,32.17
2018-01-12T16:44:28.472Z,42.93
2018-01-12T16:46:56.273Z,38.07
2018-01-12T16:49:24.004Z,28.30
2018-01-12T16:51:52.152Z,30.60
2018-01-12T16:54:19.924Z,29.97
2018-01-12T16:56:47.634Z,30.57
2018-01-12T16:59:15.449Z,22.33
2018-01-12T17:01:43.210Z,25.53
2018-01-12T17:04:10.929Z,27.80
2018-01-12T17:06:38.866Z,21.67
2018-01-12T17:09:06.628Z,15.40
2018-01-12T17:11:35.618Z,25.67
2018-01-12T17:14:03.587Z,21.13
2018-01-12T17:16:32.378Z,23.93
2018-01-12T17:19:00.169Z,20.63
2018-01-12T17:21:27.930Z,14.33
2018-01-12T17:23:55.708Z,16.50
2018-01-12T17:26:23.536Z,19.60
2018-01-12T17:28:51.243Z,18.20
2018-01-12T17:31:18.973Z,23.80
2018-01-12T17:33:46.784Z,15.63
2018-01-12T17:36:14.542Z,20.10
2018-01-12T17:38:42.258Z,20.10
2018-01-12T17:41:10.779Z,12.30
2018-01-12T17:43:38.674Z,18.23
2018-01-12T17:46:06.471Z,19.73
2018-01-12T17:48:34.265Z,22.43
2018-01-12T17:51:02.118Z,30.60
2018-01-12T17:53:31.300Z,25.50
2018-01-12T17:55:59.874Z,24.77
2018-01-12T17:58:27.797Z,30.90
2018-01-12T18:00:55.566Z,27.80
2018-01-12T18:03:29.404Z,31.47
2018-01-12T18:06:04.036Z,25.57
2018-01-12T18:08:33.474Z,26.17
2018-01-12T18:11:06.303Z,24.57
2018-01-12T18:13:35.556Z,27.57
2018-01-12T18:16:09.738Z,30.27
2018-01-12T18:18:37.933Z,25.97
2018-01-12T18:21:05.674Z,30.73
2018-01-12T18:23:33.450Z,31.27
2018-01-12T18:26:01.204Z,17.93
2018-01-12T18:28:29.072Z,23.57
2018-01-12T18:30:56.919Z,29.03
2018-01-12T18:33:24.800Z,27.83
2018-01-12T18:35:52.827Z,30.10
2018-01-12T18:38:21.428Z,31.20
2018-01-12T18:40:49.656Z,38.17
2018-01-12T18:43:17.462Z,27.60
2018-01-12T18:45:45.304Z,31.90
2018-01-12T18:48:13.170Z,23.60
2018-01-12T18:50:41.783Z,27.43
2018-01-12T18:53:09.651Z,32.57
2018-01-12T18:55:37.562Z,21.37
2018-01-12T18:58:06.575Z,23.37
2018-01-12T19:00:34.624Z,22.33
2018-01-12T19:03:03.157Z,22.20
2018-01-12T19:05:30.930Z,24.83
2018-01-12T19:07:58.778Z,26.80
2018-01-12T19:10:26.790Z,30.20
2018-01-12T19:12:54.571Z,38.03
2018-01-12T19:15:22.350Z,19.57
2018-01-12T19:17:51.357Z,32.60
2018-01-12T19:20:19.277Z,38.60
2018-01-12T19:22:48.105Z,72.57
2018-01-12T19:25:16.821Z,34.53
2018-01-12T19:27:44.786Z,57.17
2018-01-12T19:30:12.689Z,59.00
2018-01-12T19:32:40.745Z,53.27
2018-01-12T19:35:09.685Z,49.90
2018-01-12T19:37:37.645Z,51.27
2018-01-12T19:40:06.669Z,61.80
2018-01-12T19:42:34.818Z,81.80
2018-01-12T19:45:02.754Z,77.63
2018-01-12T19:47:30.702Z,61.93
2018-01-12T19:49:58.533Z,62.77
2018-01-12T19:52:26.339Z,44.13
2018-01-12T19:54:54.291Z,40.70
2018-01-12T19:57:22.268Z,63.57
2018-01-12T19:59:50.568Z,53.57
2018-01-12T20:02:19.616Z,44.37
2018-01-12T20:04:47.409Z,48.80
2018-01-12T20:07:15.351Z,40.13
2018-01-12T20:09:43.425Z,62.40
2018-01-12T20:12:11.273Z,44.13
2018-01-12T20:14:39.118Z,47.53
2018-01-12T20:17:08.266Z,40.67
2018-01-12T20:19:35.987Z,37.67
2018-01-12T20:22:03.822Z,43.90
2018-01-12T20:24:31.862Z,43.20
2018-01-12T20:26:59.790Z,40.17
2018-01-12T20:29:27.675Z,34.17
2018-01-12T20:31:55.904Z,36.53
2018-01-12T20:34:24.084Z,38.87
2018-01-12T20:36:52.076Z,36.10
2018-01-12T20:39:21.611Z,33.13
2018-01-12T20:41:50.180Z,28.97
2018-01-12T20:44:18.155Z,36.13
2018-01-12T20:46:45.918Z,35.00
2018-01-12T20:49:14.263Z,30.73
2018-01-12T20:51:42.121Z,31.20
2018-01-12T20:54:09.882Z,25.43
2018-01-12T20:56:37.660Z,26.17
2018-01-12T20:59:06.510Z,32.20
2018-01-12T21:01:34.463Z,24.83
2018-01-12T21:04:03.252Z,23.30
2018-01-12T21:06:31.262Z,26.97
2018-01-12T21:08:59.180Z,23.40
2018-01-12T21:11:27.025Z,28.33
2018-01-12T21:13:55.657Z,19.23
2018-01-12T21:16:24.581Z,23.67
2018-01-12T21:18:52.353Z,25.83
2018-01-12T21:21:21.077Z,19.30
2018-01-12T21:23:49.281Z,20.60
2018-01-12T21:26:17.286Z,18.60
2018-01-12T21:28:45.168Z,13.90
2018-01-12T21:31:13.689Z,19.17
2018-01-12T21:33:41.482Z,21.77
2018-01-12T21:36:09.515Z,22.63
2018-01-12T21:38:37.573Z,31.33
2018-01-12T21:41:06.346Z,23.77
2018-01-12T21:43:34.331Z,26.40
2018-01-12T21:46:02.622Z,30.40
2018-01-12T21:48:30.972Z,28.40
2018-01-12T21:50:59.041Z,21.13
2018-01-12T21:53:26.890Z,15.03
2018-01-12T21:55:54.844Z,24.47
2018-01-12T21:58:22.779Z,17.00
2018-01-12T22:00:50.793Z,19.40
2018-01-12T22:03:18.629Z,16.20
2018-01-12T22:05:47.366Z,16.83
2018-01-12T22:08:15.167Z,16.00
2018-01-12T22:10:42.932Z,14.10
2018-01-12T22:13:10.687Z,9.73
2018-01-12T22:15:38.441Z,14.90
2018-01-12T22:18:06.280Z,10.60
2018-01-12T22:20:35.224Z,13.90
2018-01-12T22:23:02.968Z,10.40
2018-01-12T22:25:30.719Z,11.10
2018-01-12T22:27:58.531Z,11.60
2018-01-12T22:30:26.967Z,18.03
2018-01-12T22:32:54.730Z,21.40
2018-01-12T22:35:22.503Z,19.10
2018-01-12T22:37:50.348Z,21.33
2018-01-12T22:40:18.089Z,23.77
2018-01-12T22:42:45.875Z,35.47
2018-01-12T22:45:13.627Z,21.60
2018-01-12T22:47:42.311Z,19.67
2018-01-12T22:50:10.106Z,19.50
2018-01-12T22:52:37.896Z,17.87
2018-01-12T22:55:05.656Z,23.57
2018-01-12T22:57:33.319Z,17.27
2018-01-12T23:00:01.044Z,28.50
2018-01-12T23:02:28.894Z,20.43
2018-01-12T23:04:56.602Z,16.97
2018-01-12T23:07:24.345Z,17.37
2018-01-12T23:09:52.108Z,16.13
2018-01-12T23:12:19.861Z,15.40
2018-01-12T23:14:48.516Z,15.07
2018-01-12T23:17:16.273Z,10.50
2018-01-12T23:19:44.063Z,13.87
2018-01-12T23:22:11.831Z,15.33
2018-01-12T23:24:39.601Z,12.10
2018-01-12T23:27:07.360Z,15.23
2018-01-12T23:29:35.383Z,16.47
2018-01-12T23:32:03.166Z,11.33
2018-01-12T23:34:30.903Z,13.80
2018-01-12T23:36:58.675Z,22.47
2018-01-12T23:39:26.350Z,16.00
2018-01-12T23:41:54.132Z,12.37
2018-01-12T23:44:21.889Z,15.27
2018-01-12T23:46:49.665Z,11.07
2018-01-12T23:49:17.432Z,9.57
2018-01-12T23:51:45.158Z,12.30
2018-01-12T23:54:12.834Z,12.13
2018-01-12T23:56:40.569Z,14.43
2018-01-12T23:59:08.285Z,16.10
